Frecheirinha, Brazil
Current Conditions -  °F | °C
As of 1:00 PM on Friday 28 Nov 2014 (Local Time) from SBPB Reporting Station
Few Clouds Few Clouds  
Wind Chill: 95°   Ceiling: Unl
Heat Index: 103°   Visibility: 6mi
Dew Point: 72°   Wind: 22mph
Humidity: 47%   Direction: 70°ENE
Pressure: 29.83"   Gusts: NA
Location:  3.76°S, 40.82°W
Report Text: SBPB 281600Z 07019KT 9999 FEW020 35/22 Q1010
Loading
Personal Weather Stations






























Interactive Weather Map New forecast layout! Learn more

10-Day Weather Forecast

Advertisements
Track Severe Weather on mobile